createdAt,value
2019-05-09T00:01:19.719Z,25.90
2019-05-09T00:03:54.509Z,27.07
2019-05-09T00:06:29.128Z,31.15
2019-05-09T00:09:04.083Z,25.68
2019-05-09T00:14:13.556Z,29.98
2019-05-09T00:16:47.606Z,30.27
2019-05-09T00:19:21.063Z,29.95
2019-05-09T00:21:56.345Z,30.57
2019-05-09T00:24:32.970Z,27.87
2019-05-09T00:27:06.821Z,31.70
2019-05-09T00:29:43.858Z,29.30
2019-05-09T00:32:35.522Z,30.57
2019-05-09T00:35:19.021Z,29.10
2019-05-09T00:37:57.267Z,28.42
2019-05-09T00:40:31.514Z,33.05
2019-05-09T00:43:05.572Z,28.35
2019-05-09T00:45:48.385Z,28.05
2019-05-09T00:48:23.608Z,26.90
2019-05-09T00:50:57.552Z,26.30
2019-05-09T00:53:34.619Z,25.85
2019-05-09T00:56:09.012Z,25.02
2019-05-09T00:58:44.159Z,28.05
2019-05-09T01:01:17.977Z,34.45
2019-05-09T01:03:53.563Z,30.97
2019-05-09T01:06:28.043Z,30.72
2019-05-09T01:09:04.235Z,33.23
2019-05-09T01:11:39.136Z,29.63
2019-05-09T01:14:14.184Z,32.95
2019-05-09T01:16:49.794Z,34.43
2019-05-09T01:19:27.043Z,36.08
2019-05-09T01:22:03.548Z,25.57
2019-05-09T01:24:37.020Z,28.75
2019-05-09T01:27:11.575Z,26.23
2019-05-09T01:29:48.052Z,32.25
2019-05-09T01:32:23.689Z,28.40
2019-05-09T01:34:59.382Z,30.72
2019-05-09T01:37:35.104Z,30.12
2019-05-09T01:40:13.276Z,33.28
2019-05-09T01:42:47.619Z,31.12
2019-05-09T01:45:23.623Z,38.73
2019-05-09T01:47:57.996Z,32.60
2019-05-09T01:50:33.894Z,30.73
2019-05-09T01:53:10.120Z,31.82
2019-05-09T01:56:03.420Z,34.20
2019-05-09T01:58:36.651Z,29.10
2019-05-09T02:01:13.555Z,33.00
2019-05-09T02:03:47.993Z,27.93
2019-05-09T02:08:54.907Z,33.55
2019-05-09T02:11:41.707Z,26.73
2019-05-09T02:14:05.089Z,29.27
2019-05-09T02:16:43.215Z,31.23
2019-05-09T02:19:18.273Z,30.02
2019-05-09T02:24:26.798Z,30.40
2019-05-09T02:27:03.961Z,34.95
2019-05-09T02:29:37.801Z,32.48
2019-05-09T02:32:14.157Z,30.40
2019-05-09T02:34:47.458Z,36.68
2019-05-09T02:37:21.703Z,31.82
2019-05-09T02:39:58.940Z,28.07
2019-05-09T02:42:32.226Z,33.83
2019-05-09T02:45:08.338Z,34.78
2019-05-09T02:47:42.702Z,28.92
2019-05-09T02:50:20.032Z,32.90
2019-05-09T02:55:51.383Z,37.98
2019-05-09T02:58:28.189Z,43.95
2019-05-09T03:01:04.723Z,31.62
2019-05-09T03:03:40.181Z,39.40
2019-05-09T03:06:13.989Z,41.53
2019-05-09T03:08:49.057Z,41.45
2019-05-09T03:11:24.790Z,41.70
2019-05-09T03:13:58.973Z,35.40
2019-05-09T03:16:33.311Z,38.20
2019-05-09T03:19:09.076Z,37.85
2019-05-09T03:21:50.919Z,35.58
2019-05-09T03:24:28.904Z,40.98
2019-05-09T03:27:03.573Z,35.45
2019-05-09T03:29:39.690Z,44.48
2019-05-09T03:32:19.559Z,49.10
2019-05-09T03:34:52.396Z,41.00
2019-05-09T03:37:27.825Z,42.83
2019-05-09T03:40:02.366Z,37.55
2019-05-09T03:42:41.118Z,45.88
2019-05-09T03:45:13.023Z,41.65
2019-05-09T03:47:58.263Z,35.95
2019-05-09T03:50:32.822Z,44.03
2019-05-09T03:53:08.423Z,37.48
2019-05-09T03:55:47.484Z,38.30
2019-05-09T03:58:23.085Z,40.60
2019-05-09T04:01:01.270Z,45.08
2019-05-09T04:03:37.853Z,40.88
2019-05-09T04:06:11.703Z,44.40
2019-05-09T04:08:48.179Z,39.33
2019-05-09T04:11:22.652Z,44.38
2019-05-09T04:14:08.286Z,38.08
2019-05-09T04:16:43.810Z,37.78
2019-05-09T04:21:51.983Z,40.35
2019-05-09T04:24:28.006Z,37.78
2019-05-09T04:27:09.608Z,34.43
2019-05-09T04:29:44.684Z,34.30
2019-05-09T04:32:19.617Z,32.85
2019-05-09T04:34:54.547Z,29.32
2019-05-09T04:37:31.128Z,35.92
2019-05-09T04:40:05.279Z,31.23
2019-05-09T04:42:43.088Z,33.73
2019-05-09T04:45:40.276Z,34.48
2019-05-09T04:48:20.255Z,34.92
2019-05-09T04:50:50.824Z,34.95
2019-05-09T04:53:25.999Z,35.40
2019-05-09T04:56:09.859Z,38.05
2019-05-09T04:58:44.175Z,39.53
2019-05-09T05:01:38.774Z,41.88
2019-05-09T05:04:12.234Z,34.20
2019-05-09T05:06:47.816Z,32.15
2019-05-09T05:09:22.252Z,35.35
2019-05-09T05:11:57.969Z,37.78
2019-05-09T05:14:35.234Z,37.17
2019-05-09T05:17:11.358Z,37.58
2019-05-09T05:19:47.461Z,38.85
2019-05-09T05:22:23.776Z,35.30
2019-05-09T05:25:02.801Z,40.05
2019-05-09T05:27:38.250Z,37.73
2019-05-09T05:30:14.759Z,36.68
2019-05-09T05:32:50.397Z,35.28
2019-05-09T05:35:28.317Z,41.20
2019-05-09T05:38:02.925Z,37.13
2019-05-09T05:40:44.788Z,34.83
2019-05-09T05:43:17.290Z,39.75
2019-05-09T05:45:58.346Z,37.20
2019-05-09T05:48:38.331Z,40.00
2019-05-09T05:51:15.291Z,40.45
2019-05-09T05:53:49.808Z,37.20
2019-05-09T05:56:24.029Z,32.48
2019-05-09T05:58:58.708Z,35.55
2019-05-09T06:01:34.348Z,35.43
2019-05-09T06:04:08.669Z,40.12
2019-05-09T06:06:43.528Z,38.08
2019-05-09T06:09:19.130Z,32.98
2019-05-09T06:11:53.408Z,44.30
2019-05-09T06:14:28.647Z,39.53
2019-05-09T06:17:02.985Z,35.95
2019-05-09T06:19:37.884Z,37.00
2019-05-09T06:22:12.507Z,38.88
2019-05-09T06:24:47.905Z,36.50
2019-05-09T06:27:22.328Z,39.55
2019-05-09T06:29:58.130Z,39.15
2019-05-09T06:32:32.350Z,38.60
2019-05-09T06:35:08.516Z,43.23
2019-05-09T06:37:44.544Z,44.18
2019-05-09T06:40:21.600Z,44.10
2019-05-09T06:42:58.978Z,45.88
2019-05-09T06:45:41.678Z,39.53
2019-05-09T06:48:18.085Z,37.48
2019-05-09T06:50:52.558Z,43.98
2019-05-09T06:53:35.111Z,45.65
2019-05-09T06:56:09.506Z,40.17
2019-05-09T06:58:44.944Z,44.67
2019-05-09T07:01:37.400Z,43.68
2019-05-09T07:04:28.787Z,39.25
2019-05-09T07:07:09.013Z,44.40
2019-05-09T07:09:52.035Z,41.70
2019-05-09T07:12:27.471Z,40.33
2019-05-09T07:15:11.025Z,44.10
2019-05-09T07:17:49.034Z,46.92
2019-05-09T07:20:23.684Z,39.75
2019-05-09T07:23:00.126Z,37.15
2019-05-09T07:25:37.802Z,42.00
2019-05-09T07:28:12.295Z,45.95
2019-05-09T07:30:48.159Z,48.90
2019-05-09T07:33:38.439Z,44.98
2019-05-09T07:36:14.050Z,51.68
2019-05-09T07:38:49.748Z,41.65
2019-05-09T07:41:24.976Z,39.90
2019-05-09T07:43:59.227Z,45.30
2019-05-09T07:46:34.225Z,47.48
2019-05-09T07:51:42.933Z,38.78
2019-05-09T07:54:24.804Z,38.98
2019-05-09T07:56:53.923Z,44.13
2019-05-09T07:59:29.386Z,45.58
2019-05-09T08:02:03.825Z,45.63
2019-05-09T08:04:38.625Z,49.03
2019-05-09T08:09:52.391Z,46.80
2019-05-09T08:12:28.447Z,42.90
2019-05-09T08:15:15.725Z,55.58
2019-05-09T08:17:44.745Z,50.63
2019-05-09T08:20:19.481Z,50.10
2019-05-09T08:22:58.743Z,43.98
2019-05-09T08:25:31.185Z,47.30
2019-05-09T08:28:17.970Z,44.45
2019-05-09T08:30:52.690Z,47.05
2019-05-09T08:33:28.854Z,47.38
2019-05-09T08:36:03.904Z,47.13
2019-05-09T08:41:18.639Z,49.27
2019-05-09T08:43:54.386Z,50.40
2019-05-09T08:46:29.288Z,54.45
2019-05-09T08:51:50.668Z,55.70
2019-05-09T08:54:31.523Z,54.50
2019-05-09T08:57:07.701Z,61.42
2019-05-09T08:59:41.856Z,53.92
2019-05-09T09:02:19.539Z,70.52
2019-05-09T09:04:52.454Z,54.08
2019-05-09T09:07:29.682Z,60.40
2019-05-09T09:10:08.443Z,61.75
2019-05-09T09:12:47.533Z,45.65
2019-05-09T09:15:54.626Z,56.75
2019-05-09T09:18:10.133Z,54.42
2019-05-09T09:20:48.324Z,55.00
2019-05-09T09:23:39.789Z,52.85
2019-05-09T09:26:02.969Z,62.93
2019-05-09T09:28:42.313Z,52.73
2019-05-09T09:31:20.092Z,54.20
2019-05-09T09:34:04.712Z,55.38
2019-05-09T09:36:40.273Z,56.13
2019-05-09T09:39:14.604Z,55.35
2019-05-09T09:41:49.499Z,50.60
2019-05-09T09:46:58.141Z,58.75
2019-05-09T09:49:33.709Z,63.92
2019-05-09T09:52:09.142Z,49.93
2019-05-09T09:54:43.352Z,53.85
2019-05-09T09:57:19.192Z,58.65
2019-05-09T09:59:54.368Z,61.98
2019-05-09T10:02:33.606Z,55.40
2019-05-09T10:05:08.288Z,53.02
2019-05-09T10:07:42.485Z,58.33
2019-05-09T10:10:19.021Z,53.10
2019-05-09T10:12:53.581Z,55.55
2019-05-09T10:15:38.288Z,55.52
2019-05-09T10:18:30.090Z,50.63
2019-05-09T10:21:11.707Z,61.58
2019-05-09T10:23:48.139Z,58.80
2019-05-09T10:26:22.304Z,71.67
2019-05-09T10:28:58.808Z,60.65
2019-05-09T10:31:35.217Z,55.52
2019-05-09T10:34:13.598Z,51.42
2019-05-09T10:36:47.799Z,56.45
2019-05-09T10:39:22.581Z,56.90
2019-05-09T10:41:57.704Z,52.73
2019-05-09T10:44:38.892Z,51.42
2019-05-09T10:47:19.463Z,51.23
2019-05-09T10:49:53.535Z,52.38
2019-05-09T10:52:28.442Z,58.63
2019-05-09T10:57:42.627Z,46.40
2019-05-09T11:00:18.288Z,55.40
2019-05-09T11:02:51.619Z,49.73
2019-05-09T11:05:27.686Z,51.68
2019-05-09T11:08:01.265Z,51.42
2019-05-09T11:10:39.544Z,50.45
2019-05-09T11:13:13.972Z,51.48
2019-05-09T11:15:49.251Z,45.33
2019-05-09T11:18:28.673Z,53.70
2019-05-09T11:21:02.497Z,51.40
2019-05-09T11:23:39.293Z,51.23
2019-05-09T11:26:13.440Z,52.80
2019-05-09T11:28:48.097Z,47.33
2019-05-09T11:33:57.920Z,47.60
2019-05-09T11:36:50.481Z,53.90
2019-05-09T11:39:38.675Z,46.42
2019-05-09T11:42:06.791Z,50.15
2019-05-09T11:44:42.257Z,45.75
2019-05-09T11:47:31.431Z,49.38
2019-05-09T11:49:52.035Z,45.88
2019-05-09T11:52:28.867Z,50.08
2019-05-09T11:55:03.466Z,47.10
2019-05-09T11:57:39.417Z,54.90
2019-05-09T12:00:13.378Z,52.00
2019-05-09T12:02:50.014Z,47.62
2019-05-09T12:05:25.066Z,49.63
2019-05-09T12:08:02.789Z,57.17
2019-05-09T12:10:38.271Z,55.30
2019-05-09T12:13:15.721Z,47.80
2019-05-09T12:15:50.254Z,49.98
2019-05-09T12:18:28.010Z,94.28
2019-05-09T12:21:03.480Z,51.55
2019-05-09T12:23:37.863Z,82.78
2019-05-09T12:26:12.458Z,86.80
2019-05-09T12:28:48.266Z,67.12
2019-05-09T12:31:22.243Z,78.33
2019-05-09T12:33:59.262Z,62.98
2019-05-09T12:36:32.513Z,70.65
2019-05-09T12:39:08.792Z,62.73
2019-05-09T12:41:51.698Z,66.45
2019-05-09T12:44:29.449Z,59.88
2019-05-09T12:47:06.018Z,58.68
2019-05-09T12:49:41.474Z,55.28
2019-05-09T12:52:18.369Z,57.08
2019-05-09T12:54:52.350Z,57.35
2019-05-09T12:57:29.274Z,55.43
2019-05-09T13:00:03.814Z,60.05
2019-05-09T13:02:45.902Z,59.18
2019-05-09T13:05:27.259Z,61.48
2019-05-09T13:08:01.992Z,61.50
2019-05-09T13:10:39.648Z,56.42
2019-05-09T13:13:20.240Z,60.55
2019-05-09T13:16:14.887Z,57.83
2019-05-09T13:19:05.910Z,58.50
2019-05-09T13:21:40.881Z,59.85
2019-05-09T13:24:20.282Z,57.35
2019-05-09T13:26:58.357Z,61.50
2019-05-09T13:29:40.313Z,57.88
2019-05-09T13:35:34.011Z,64.95
2019-05-09T13:38:18.008Z,63.45
2019-05-09T13:40:59.454Z,58.42
2019-05-09T13:43:45.842Z,58.83
2019-05-09T13:46:19.179Z,60.40
2019-05-09T13:49:10.768Z,61.10
2019-05-09T13:51:54.905Z,53.48
2019-05-09T13:54:24.162Z,56.05
2019-05-09T13:57:08.397Z,57.03
2019-05-09T13:59:48.372Z,61.45
2019-05-09T14:02:24.793Z,58.50
2019-05-09T14:05:03.711Z,59.15
2019-05-09T14:07:40.318Z,54.90
2019-05-09T14:10:18.054Z,60.50
2019-05-09T14:13:05.812Z,58.50
2019-05-09T14:15:30.908Z,56.75
2019-05-09T14:18:08.299Z,60.17
2019-05-09T14:20:45.696Z,56.13
2019-05-09T14:23:22.077Z,59.13
2019-05-09T14:25:59.013Z,58.23
2019-05-09T14:28:36.139Z,59.85
2019-05-09T14:31:11.454Z,62.62
2019-05-09T14:33:47.765Z,65.97
2019-05-09T14:36:27.569Z,57.38
2019-05-09T14:39:03.623Z,62.58
2019-05-09T14:41:41.827Z,60.33
2019-05-09T14:44:23.883Z,60.85
2019-05-09T14:47:02.367Z,61.20
2019-05-09T14:49:43.329Z,55.28
2019-05-09T14:52:19.085Z,57.83
2019-05-09T14:55:01.889Z,58.10
2019-05-09T15:00:38.779Z,60.23
2019-05-09T15:03:21.540Z,60.63
2019-05-09T15:05:57.400Z,58.42
2019-05-09T15:08:44.230Z,61.30
2019-05-09T15:13:58.262Z,55.23
2019-05-09T15:16:44.694Z,51.68
2019-05-09T15:19:23.144Z,59.55
2019-05-09T15:22:03.850Z,54.98
2019-05-09T15:24:49.493Z,53.78
2019-05-09T15:27:29.214Z,62.20
2019-05-09T15:30:08.026Z,53.30
2019-05-09T15:32:51.414Z,56.45
2019-05-09T15:35:24.542Z,54.30
2019-05-09T15:38:08.608Z,54.55
2019-05-09T15:40:58.085Z,45.78
2019-05-09T15:43:34.640Z,51.33
2019-05-09T15:46:18.558Z,51.77
2019-05-09T15:49:09.516Z,46.20
2019-05-09T15:51:47.640Z,54.70
2019-05-09T15:54:23.682Z,52.00
2019-05-09T15:57:08.467Z,55.17
2019-05-09T15:59:52.345Z,49.98
2019-05-09T16:05:23.584Z,52.65
2019-05-09T16:07:58.718Z,58.25
2019-05-09T16:10:51.295Z,56.15
2019-05-09T16:13:28.494Z,62.25
2019-05-09T16:16:08.806Z,56.63
2019-05-09T16:18:44.674Z,58.92
2019-05-09T16:21:20.970Z,59.75
2019-05-09T16:23:59.335Z,59.73
2019-05-09T16:26:43.307Z,59.08
2019-05-09T16:29:18.706Z,64.05
2019-05-09T16:32:00.341Z,61.42
2019-05-09T16:34:39.463Z,59.67
2019-05-09T16:37:18.273Z,58.17
2019-05-09T16:39:57.933Z,50.48
2019-05-09T16:42:34.477Z,57.15
2019-05-09T16:45:11.368Z,51.70
2019-05-09T16:47:48.567Z,57.80
2019-05-09T16:50:33.016Z,51.83
2019-05-09T16:53:09.476Z,55.67
2019-05-09T16:55:46.177Z,59.42
2019-05-09T16:58:20.692Z,62.38
2019-05-09T17:00:58.407Z,59.42
2019-05-09T17:03:33.125Z,55.67
2019-05-09T17:06:09.658Z,59.38
2019-05-09T17:08:47.914Z,55.80
2019-05-09T17:11:21.943Z,54.42
2019-05-09T17:13:58.365Z,52.77
2019-05-09T17:16:33.375Z,59.83
2019-05-09T17:19:09.171Z,59.13
2019-05-09T17:22:00.747Z,53.52
2019-05-09T17:24:37.422Z,57.70
2019-05-09T17:27:13.491Z,63.87
2019-05-09T17:29:48.363Z,56.15
2019-05-09T17:34:58.352Z,60.05
2019-05-09T17:37:33.686Z,51.63
2019-05-09T17:40:15.932Z,51.18
2019-05-09T17:42:47.835Z,51.88
2019-05-09T17:45:21.906Z,51.83
2019-05-09T17:47:57.828Z,53.47
2019-05-09T17:50:34.249Z,55.67
2019-05-09T17:53:09.507Z,54.18
2019-05-09T17:55:44.765Z,53.78
2019-05-09T17:58:29.100Z,51.20
2019-05-09T18:00:57.489Z,47.60
2019-05-09T18:03:31.620Z,53.02
2019-05-09T18:06:08.244Z,51.35
2019-05-09T18:08:44.622Z,51.20
2019-05-09T18:11:18.721Z,48.63
2019-05-09T18:13:54.433Z,51.83
2019-05-09T18:16:29.008Z,52.33
2019-05-09T18:19:07.998Z,40.05
2019-05-09T18:21:49.928Z,44.30
2019-05-09T18:24:17.637Z,45.70
2019-05-09T18:26:51.749Z,43.13
2019-05-09T18:29:27.393Z,46.57
2019-05-09T18:32:03.846Z,46.85
2019-05-09T18:34:38.291Z,57.73
2019-05-09T18:37:12.880Z,55.43
2019-05-09T18:39:48.529Z,57.03
2019-05-09T18:42:23.936Z,59.38
2019-05-09T18:44:59.610Z,53.42
2019-05-09T18:47:33.729Z,61.92
2019-05-09T18:50:08.681Z,60.23
2019-05-09T18:55:16.273Z,59.00
2019-05-09T18:57:51.164Z,55.33
2019-05-09T19:00:27.047Z,58.13
2019-05-09T19:03:02.480Z,58.45
2019-05-09T19:05:37.797Z,51.63
2019-05-09T19:08:11.968Z,56.48
2019-05-09T19:10:46.438Z,52.27
2019-05-09T19:13:20.911Z,51.23
2019-05-09T19:16:05.511Z,53.20
2019-05-09T19:18:47.885Z,48.75
2019-05-09T19:21:26.758Z,53.98
2019-05-09T19:29:53.580Z,45.12
2019-05-09T19:32:28.294Z,48.63
2019-05-09T19:35:04.014Z,50.60
2019-05-09T19:37:39.986Z,44.65
2019-05-09T19:40:20.056Z,44.75
2019-05-09T19:42:52.045Z,49.90
2019-05-09T19:47:58.915Z,46.92
2019-05-09T19:50:36.156Z,47.98
2019-05-09T19:53:11.121Z,41.25
2019-05-09T19:58:18.190Z,49.35
2019-05-09T20:00:53.099Z,45.63
2019-05-09T20:03:27.099Z,45.38
2019-05-09T20:06:01.633Z,48.52
2019-05-09T20:08:35.594Z,46.85
2019-05-09T20:11:28.354Z,40.95
2019-05-09T20:14:03.817Z,47.80
2019-05-09T20:16:43.054Z,40.35
2019-05-09T20:19:17.026Z,49.80
2019-05-09T20:21:51.360Z,39.83
2019-05-09T20:24:25.481Z,44.00
2019-05-09T20:27:00.443Z,43.00
2019-05-09T20:32:08.208Z,45.92
2019-05-09T20:34:43.595Z,41.80
2019-05-09T20:37:17.360Z,40.50
2019-05-09T20:39:52.959Z,43.87
2019-05-09T20:42:27.385Z,40.88
2019-05-09T20:45:01.393Z,37.40
2019-05-09T20:47:36.036Z,37.03
2019-05-09T20:50:10.179Z,38.73
2019-05-09T20:52:44.393Z,35.17
2019-05-09T20:55:18.767Z,38.70
2019-05-09T20:57:53.341Z,43.38
2019-05-09T21:00:27.440Z,41.48
2019-05-09T21:03:02.016Z,44.93
2019-05-09T21:05:37.111Z,40.23
2019-05-09T21:08:12.675Z,42.78
2019-05-09T21:10:47.134Z,42.55
2019-05-09T21:13:22.901Z,42.60
2019-05-09T21:15:57.531Z,41.50
2019-05-09T21:18:32.115Z,43.95
2019-05-09T21:21:06.655Z,42.65
2019-05-09T21:23:42.210Z,47.27
2019-05-09T21:26:17.781Z,44.35
2019-05-09T21:28:51.566Z,48.95
2019-05-09T21:31:25.686Z,48.13
2019-05-09T21:34:00.037Z,43.00
2019-05-09T21:36:34.427Z,38.40
2019-05-09T21:39:10.089Z,43.70
2019-05-09T21:41:44.599Z,42.62
2019-05-09T21:44:19.073Z,37.38
2019-05-09T21:46:56.277Z,47.20
2019-05-09T21:49:30.315Z,38.88
2019-05-09T21:52:05.875Z,40.73
2019-05-09T21:54:39.572Z,43.70
2019-05-09T21:57:13.967Z,49.93
2019-05-09T21:59:48.415Z,42.48
2019-05-09T22:02:23.445Z,46.85
2019-05-09T22:07:30.549Z,47.45
2019-05-09T22:10:04.561Z,45.75
2019-05-09T22:12:38.530Z,43.30
2019-05-09T22:15:13.499Z,41.70
2019-05-09T22:17:47.666Z,45.28
2019-05-09T22:20:23.198Z,45.45
2019-05-09T22:22:57.561Z,49.75
2019-05-09T22:25:31.958Z,43.58
2019-05-09T22:28:06.767Z,48.73
2019-05-09T22:30:40.796Z,57.13
2019-05-09T22:33:15.193Z,45.47
2019-05-09T22:35:48.802Z,46.50
2019-05-09T22:38:22.995Z,39.20
2019-05-09T22:40:58.586Z,38.65
2019-05-09T22:43:32.246Z,38.88
2019-05-09T22:46:06.174Z,42.83
2019-05-09T22:48:40.145Z,38.20
2019-05-09T22:51:15.023Z,42.78
2019-05-09T22:53:49.446Z,42.83
2019-05-09T22:56:24.372Z,39.45
2019-05-09T22:58:58.353Z,43.10
2019-05-09T23:01:33.204Z,38.65
2019-05-09T23:04:07.061Z,35.78
2019-05-09T23:06:43.367Z,41.45
2019-05-09T23:09:18.295Z,36.13
2019-05-09T23:11:52.677Z,37.95
2019-05-09T23:14:27.258Z,38.75
2019-05-09T23:17:01.700Z,40.10
2019-05-09T23:19:36.226Z,36.75
2019-05-09T23:22:10.265Z,36.83
2019-05-09T23:24:44.871Z,40.40
2019-05-09T23:27:20.938Z,43.70
2019-05-09T23:29:54.948Z,42.62
2019-05-09T23:32:30.209Z,44.17
2019-05-09T23:35:05.588Z,43.68
2019-05-09T23:37:39.595Z,40.33
2019-05-09T23:40:16.153Z,51.28
2019-05-09T23:42:51.482Z,45.95
2019-05-09T23:45:25.464Z,51.00
2019-05-09T23:47:59.666Z,44.80
2019-05-09T23:50:33.990Z,45.83
2019-05-09T23:53:08.457Z,53.38
2019-05-09T23:56:00.527Z,50.83
2019-05-09T23:58:52.361Z,49.05
